Impacts METAR Board
IDs:

KTPL - Temple/Miller Rgnl, TX, US

Updated at: 0000 UTC 01 Nov 2020
Potential Impact None Slight Moderate High
Time 31/12Z 31/13Z 31/14Z 31/15Z 31/16Z 31/17Z 31/18Z 31/19Z 31/20Z 31/21Z 31/22Z 31/23Z 01/00Z
Temp40 39 45 54 59 63 67 70 72 73 74 72 66
Dewpt40 39 45 45 43 43 44 43 43 41 41 43 43
Altim30.22 30.22 30.23 30.25 30.25 30.23 30.20 30.17 30.13 30.10 30.09 30.10 30.11
VIS10 10 10 10 10 10 10 10 10 10 10 10 10
CIG-- -- -- -- -- -- -- -- -- -- -- -- --
CoverCLRCLRCLRCLRCLRCLRCLRCLRCLRCLRCLRCLRCLR
FltCatVFRVFRVFRVFRVFRVFRVFRVFRVFRVFRVFRVFRVFR
WX--------------------------
WDir1401600190170190140180180170180170140
WSpd3 3 0 6 6 6 7 11 8 9 11 7 5
WGst-- -- -- -- -- -- -- 14 -- -- -- -- --
Raw hourly METARs
KTPL 311151Z AUTO 14003KT 10SM CLR 04/04 A3022 RMK AO2 SLP229 T00440044 10072 20033 53004
KTPL 311251Z AUTO 16003KT 10SM CLR 04/04 A3022 RMK AO2 SLP232 T00390039
KTPL 311351Z AUTO 00000KT 10SM CLR 07/07 A3023 RMK AO2 SLP235 T00720072
KTPL 311451Z AUTO 19006KT 10SM CLR 12/07 A3025 RMK AO2 SLP240 T01220072 53010
KTPL 311551Z AUTO 17006KT 10SM CLR 15/06 A3025 RMK AO2 SLP239 T01500061
KTPL 311651Z AUTO 19006KT 10SM CLR 17/06 A3023 RMK AO2 SLP234 T01720061
KTPL 311751Z AUTO 14007KT 10SM CLR 19/07 A3020 RMK AO2 SLP223 T01940067 10194 20033 58015
KTPL 311851Z AUTO 18011G14KT 10SM CLR 21/06 A3017 RMK AO2 SLP209 T02110061
KTPL 311951Z AUTO 18008KT 10SM CLR 22/06 A3013 RMK AO2 SLP196 T02220061
KTPL 312051Z AUTO 17009KT 10SM CLR 23/05 A3010 RMK AO2 SLP186 T02280050 56035
KTPL 312151Z AUTO 18011KT 10SM CLR 23/05 A3009 RMK AO2 SLP184 T02330050
KTPL 312251Z AUTO 17007KT 10SM CLR 22/06 A3010 RMK AO2 SLP186 T02220061
KTPL 312351Z AUTO 14005KT 10SM CLR 19/06 A3011 RMK AO2 SLP190 T01890061 10233 20189 53002